Time;durP1;ratioP1;P1;durP2;ratioP2;P2;SDS_P1;SDS_P2;PMS_P1;PMS_P2;Temp;Humidity;BMP_temperature;BMP_pressure;BME280_temperature;BME280_humidity;BME280_pressure;Samples;Min_cycle;Max_cycle;Signal;HPM_P1;HPM_P2
2021/10/25 00:00:57;;;;;;;46.10;23.80;;;;;;;0.48;81.72;101743.75;1790665;80;25494;-54
2021/10/25 00:03:23;;;;;;;46.37;24.72;;;;;;;0.44;81.90;101741.17;1790577;80;27428;-53
2021/10/25 00:05:50;;;;;;;47.43;25.10;;;;;;;0.41;81.83;101740.25;1790497;80;25580;-54
2021/10/25 00:08:16;;;;;;;41.85;24.23;;;;;;;0.38;82.42;101740.69;1790588;80;25489;-53
2021/10/25 00:10:45;;;;;;;44.38;24.72;;;;;;;0.33;82.63;101732.78;1790519;78;25605;-54
2021/10/25 00:13:12;;;;;;;39.67;23.47;;;;;;;0.28;82.77;101732.58;1790671;80;25603;-53
2021/10/25 00:15:39;;;;;;;45.38;23.30;;;;;;;0.25;82.64;101725.52;1790457;80;27942;-54
2021/10/25 00:18:06;;;;;;;47.35;24.95;;;;;;;0.23;82.45;101731.56;1789301;80;25678;-55
2021/10/25 00:20:34;;;;;;;49.73;26.48;;;;;;;0.20;82.99;101739.44;1789348;80;25802;-54
2021/10/25 00:23:01;;;;;;;41.45;24.23;;;;;;;0.18;83.00;101740.97;1789643;80;25900;-55
2021/10/25 00:25:27;;;;;;;47.30;25.88;;;;;;;0.19;83.21;101736.48;1789639;80;25765;-55
2021/10/25 00:27:54;;;;;;;52.20;25.40;;;;;;;0.18;83.28;101738.83;1789606;80;29601;-55
2021/10/25 00:30:21;;;;;;;48.42;25.15;;;;;;;0.16;83.43;101735.55;1789547;80;27106;-56
2021/10/25 00:32:47;;;;;;;52.23;25.35;;;;;;;0.14;83.53;101734.42;1790444;80;25516;-56
2021/10/25 00:35:14;;;;;;;49.40;25.20;;;;;;;0.14;83.41;101733.62;1790475;80;25612;-54
2021/10/25 00:37:41;;;;;;;52.08;27.77;;;;;;;0.13;83.24;101726.64;1790613;80;25639;-55
2021/10/25 00:40:10;;;;;;;49.75;25.85;;;;;;;0.10;83.40;101731.87;1790546;78;28127;-56
2021/10/25 00:42:38;;;;;;;52.20;27.65;;;;;;;0.07;83.40;101719.47;1790765;80;25699;-56
2021/10/25 00:45:06;;;;;;;47.05;24.98;;;;;;;0.10;83.70;101723.05;1790551;80;25676;-55
2021/10/25 00:47:32;;;;;;;52.45;26.73;;;;;;;0.12;83.72;101730.31;1790531;80;25461;-56
2021/10/25 00:50:00;;;;;;;48.40;24.87;;;;;;;0.10;83.54;101723.05;1790546;80;25493;-54
2021/10/25 00:52:29;;;;;;;46.30;24.15;;;;;;;0.08;83.25;101717.94;1790615;80;26899;-56
2021/10/25 00:54:56;;;;;;;48.45;25.08;;;;;;;0.07;83.26;101715.47;1790709;80;25560;-56
2021/10/25 00:57:22;;;;;;;43.87;24.47;;;;;;;0.04;82.76;101716.72;1790625;79;25605;-55
2021/10/25 00:59:49;;;;;;;49.50;25.50;;;;;;;0.02;82.62;101717.92;1796383;79;25457;-54
2021/10/25 01:02:16;;;;;;;49.25;24.87;;;;;;;-0.01;82.97;101715.17;1796490;79;25498;-55
2021/10/25 01:04:45;;;;;;;44.60;25.25;;;;;;;-0.02;83.16;101713.53;1796411;79;27303;-55
2021/10/25 01:07:12;;;;;;;54.88;27.05;;;;;;;-0.04;83.52;101704.41;1796499;79;25711;-55
2021/10/25 01:09:41;;;;;;;48.95;26.00;;;;;;;-0.05;83.38;101698.81;1796405;78;25619;-54
2021/10/25 01:12:10;;;;;;;47.23;25.53;;;;;;;-0.06;83.10;101701.66;1796636;79;25608;-55
2021/10/25 01:14:36;;;;;;;53.40;26.83;;;;;;;-0.10;82.66;101701.26;1796681;79;25441;-55
2021/10/25 01:17:03;;;;;;;55.33;27.87;;;;;;;-0.12;82.60;101701.14;1796531;79;28154;-55
2021/10/25 01:19:31;;;;;;;55.38;29.48;;;;;;;-0.15;83.24;101701.05;1796300;79;25805;-54
2021/10/25 01:21:59;;;;;;;51.83;27.05;;;;;;;-0.16;83.53;101695.93;1796412;79;25544;-55
2021/10/25 01:24:25;;;;;;;63.58;28.85;;;;;;;-0.21;83.77;101694.67;1796416;79;25454;-55
2021/10/25 01:26:53;;;;;;;62.03;30.00;;;;;;;-0.25;84.03;101694.79;1796493;79;25690;-56
2021/10/25 01:29:20;;;;;;;58.25;29.30;;;;;;;-0.25;84.11;101692.65;1796421;79;29538;-56
2021/10/25 01:31:48;;;;;;;54.53;28.10;;;;;;;-0.26;84.32;101693.66;1796350;79;25608;-55
2021/10/25 01:34:15;;;;;;;59.77;28.57;;;;;;;-0.27;84.39;101693.36;1796332;79;25656;-55
2021/10/25 01:36:42;;;;;;;56.53;27.87;;;;;;;-0.31;84.44;101688.13;1796400;79;25600;-56
2021/10/25 01:39:10;;;;;;;54.40;27.77;;;;;;;-0.32;84.33;101684.66;1796440;78;25559;-55
2021/10/25 01:41:38;;;;;;;55.17;27.50;;;;;;;-0.32;84.55;101683.81;1796435;79;27342;-56
2021/10/25 01:44:11;;;;;;;54.65;27.45;;;;;;;-0.33;84.39;101674.22;1796352;79;25357;-55
2021/10/25 01:46:37;;;;;;;56.75;28.50;;;;;;;-0.33;84.33;101671.56;1796472;79;25677;-57
2021/10/25 01:49:06;;;;;;;55.17;27.77;;;;;;;-0.35;84.20;101663.78;1796464;79;26211;-54
2021/10/25 01:51:32;;;;;;;50.28;27.85;;;;;;;-0.35;84.25;101666.44;1796515;79;25679;-56
2021/10/25 01:54:00;;;;;;;53.98;28.47;;;;;;;-0.35;84.18;101668.30;1796433;79;27135;-55
2021/10/25 01:56:27;;;;;;;59.65;28.70;;;;;;;-0.38;84.11;101665.52;1796329;79;25624;-55
2021/10/25 01:58:56;;;;;;;46.37;25.80;;;;;;;-0.38;84.08;101663.66;1796418;79;25721;-54
2021/10/25 02:01:23;;;;;;;49.30;26.12;;;;;;;-0.38;84.15;101655.69;1796383;79;25877;-56
2021/10/25 02:03:51;;;;;;;48.17;26.75;;;;;;;-0.38;84.12;101658.86;1796449;79;25472;-56
2021/10/25 02:06:19;;;;;;;58.45;27.67;;;;;;;-0.43;84.18;101652.81;1796433;79;27438;-56
2021/10/25 02:08:46;;;;;;;49.93;26.75;;;;;;;-0.39;84.03;101651.41;1796307;78;25516;-56
2021/10/25 02:11:15;;;;;;;52.15;26.73;;;;;;;-0.40;84.01;101647.09;1796397;79;25798;-56
2021/10/25 02:13:43;;;;;;;56.40;26.68;;;;;;;-0.41;83.91;101645.97;1796338;79;25599;-56
2021/10/25 02:16:11;;;;;;;53.40;26.80;;;;;;;-0.42;84.02;101647.82;1796404;79;25676;-56
2021/10/25 02:18:38;;;;;;;50.65;26.27;;;;;;;-0.42;84.22;101646.49;1796376;79;26787;-56
2021/10/25 02:21:05;;;;;;;50.20;26.60;;;;;;;-0.42;84.14;101641.17;1796318;79;25514;-55
2021/10/25 02:23:33;;;;;;;55.00;26.30;;;;;;;-0.42;84.05;101642.50;1796368;79;25425;-56
2021/10/25 02:26:00;;;;;;;51.15;25.57;;;;;;;-0.41;84.39;101640.16;1796376;79;25288;-56
2021/10/25 02:28:28;;;;;;;51.48;26.02;;;;;;;-0.43;84.06;101634.73;1796450;79;25626;-55
2021/10/25 02:30:55;;;;;;;47.40;25.30;;;;;;;-0.43;84.50;101626.75;1796404;79;27327;-56
2021/10/25 02:33:22;;;;;;;47.05;26.00;;;;;;;-0.43;84.42;101621.44;1796314;79;25493;-55
2021/10/25 02:35:51;;;;;;;53.33;26.45;;;;;;;-0.44;84.28;101628.59;1796337;79;25502;-55
2021/10/25 02:38:18;;;;;;;50.20;26.23;;;;;;;-0.46;84.68;101615.19;1796382;79;25515;-55
2021/10/25 02:40:47;;;;;;;46.40;26.27;;;;;;;-0.44;84.69;101617.16;1796407;78;25854;-54
2021/10/25 02:43:14;;;;;;;49.83;25.83;;;;;;;-0.44;84.48;101618.48;1796658;79;27298;-56
2021/10/25 02:45:41;;;;;;;51.35;25.20;;;;;;;-0.45;84.37;101614.18;1796327;79;25666;-55
2021/10/25 02:48:10;;;;;;;51.20;27.75;;;;;;;-0.46;84.39;101617.84;1796410;79;25217;-56
2021/10/25 02:50:36;;;;;;;49.18;25.35;;;;;;;-0.45;84.98;101616.84;1796365;79;25681;-55
2021/10/25 02:53:05;;;;;;;49.05;25.60;;;;;;;-0.45;84.95;101616.84;1796504;79;25615;-55
2021/10/25 02:55:34;;;;;;;52.62;25.68;;;;;;;-0.46;84.61;101623.16;1796469;79;27377;-55
2021/10/25 02:58:01;;;;;;;53.02;25.52;;;;;;;-0.47;84.64;101619.70;1796451;79;25637;-56
2021/10/25 03:00:30;;;;;;;50.40;25.90;;;;;;;-0.47;84.86;101618.37;1790466;79;25594;-56
2021/10/25 03:02:58;;;;;;;58.50;28.27;;;;;;;-0.48;84.66;101618.05;1790561;80;27450;-56
2021/10/25 03:05:25;;;;;;;53.27;27.57;;;;;;;-0.50;85.09;101614.78;1790762;80;25490;-55
2021/10/25 03:07:52;;;;;;;48.75;26.30;;;;;;;-0.49;84.62;101606.31;1790507;80;27315;-55
2021/10/25 03:10:18;;;;;;;51.23;25.32;;;;;;;-0.52;84.54;101611.51;1790392;78;25792;-54
2021/10/25 03:12:47;;;;;;;51.45;25.52;;;;;;;-0.53;84.60;101611.71;1790697;80;25678;-55
2021/10/25 03:15:16;;;;;;;54.30;27.48;;;;;;;-0.56;84.98;101606.30;1790679;80;25517;-54
2021/10/25 03:17:44;;;;;;;51.90;27.20;;;;;;;-0.54;84.91;101610.91;1790982;80;25675;-55
2021/10/25 03:20:12;;;;;;;51.15;27.02;;;;;;;-0.52;85.06;101601.40;1790664;79;27313;-55
2021/10/25 03:22:40;;;;;;;50.63;26.25;;;;;;;-0.53;84.90;101605.06;1790566;80;25717;-55
2021/10/25 03:25:10;;;;;;;51.55;27.00;;;;;;;-0.54;84.71;101606.10;1790663;79;25578;-55
2021/10/25 03:27:38;;;;;;;53.20;27.45;;;;;;;-0.55;84.91;101613.23;1790576;80;25623;-57
2021/10/25 03:30:07;;;;;;;53.45;28.07;;;;;;;-0.56;85.14;101604.97;1790671;79;25460;-55
2021/10/25 03:32:34;;;;;;;47.63;26.83;;;;;;;-0.57;85.28;101604.14;1790896;80;27912;-54
2021/10/25 03:35:00;;;;;;;53.20;26.68;;;;;;;-0.56;85.08;101612.95;1790536;80;25675;-55
2021/10/25 03:37:28;;;;;;;54.10;26.10;;;;;;;-0.58;85.09;101609.16;1790616;80;25418;-54
2021/10/25 03:39:55;;;;;;;51.80;26.17;;;;;;;-0.59;85.18;101607.52;1790531;78;25682;-55
2021/10/25 03:42:32;;;;;;;50.90;25.97;;;;;;;-0.59;85.37;101607.52;1790731;80;25640;-54
2021/10/25 03:47:56;;;;;;;51.73;26.10;;;;;;;-0.59;85.68;101593.41;1790600;80;25630;-54
2021/10/25 03:50:23;;;;;;;52.35;26.45;;;;;;;-0.60;85.31;101599.73;1789921;79;25461;-53
2021/10/25 03:52:56;;;;;;;54.15;26.48;;;;;;;-0.61;85.62;101594.94;1790606;80;25430;-54
2021/10/25 04:27:57;;;;;;;53.25;25.40;;;;;;;-0.58;86.23;101567.12;1693549;84;25571;-53
2021/10/25 04:30:22;;;;;;;54.18;26.60;;;;;;;-0.58;86.59;101552.02;1693608;84;25618;-54
2021/10/25 04:32:50;;;;;;;55.33;25.90;;;;;;;-0.58;86.40;101552.02;1693591;84;25607;-54
2021/10/25 04:35:16;;;;;;;52.23;27.20;;;;;;;-0.58;86.30;101546.70;1693679;84;25594;-54
2021/10/25 04:37:43;;;;;;;48.08;25.25;;;;;;;-0.57;86.59;101540.87;1693693;84;27339;-54
2021/10/25 04:40:12;;;;;;;49.98;25.40;;;;;;;-0.58;86.71;101542.72;1693494;84;25503;-56
2021/10/25 04:42:38;;;;;;;57.40;27.60;;;;;;;-0.58;86.94;101532.09;1693818;84;25692;-54
2021/10/25 04:45:09;;;;;;;56.83;27.10;;;;;;;-0.56;87.43;101538.53;1693608;84;25800;-54
2021/10/25 04:47:37;;;;;;;48.80;26.07;;;;;;;-0.54;87.83;101537.80;1693738;84;25572;-54
2021/10/25 04:50:06;;;;;;;51.37;25.95;;;;;;;-0.53;87.81;101538.09;1693671;84;27981;-53
2021/10/25 04:52:33;;;;;;;58.75;27.70;;;;;;;-0.52;87.49;101530.96;1716310;81;25749;-52
2021/10/25 04:55:05;;;;;;;59.08;26.75;;;;;;;-0.51;87.34;101532.09;1748810;82;25765;-54
2021/10/25 04:57:32;;;;;;;52.43;27.35;;;;;;;-0.51;87.29;101531.25;1748873;82;25898;-54
2021/10/25 05:00:03;;;;;;;60.33;27.67;;;;;;;-0.51;87.36;101520.61;1750368;81;26045;-53
2021/10/25 05:02:29;;;;;;;56.58;27.22;;;;;;;-0.51;87.51;101521.95;1751876;81;27386;-55
2021/10/25 05:04:57;;;;;;;49.30;25.12;;;;;;;-0.49;87.81;101521.25;1792053;80;25615;-54
2021/10/25 05:07:24;;;;;;;49.20;25.12;;;;;;;-0.48;88.22;101513.05;1793651;80;25662;-54
2021/10/25 05:09:51;;;;;;;50.78;25.17;;;;;;;-0.46;88.02;101517.67;1793558;78;25491;-56
2021/10/25 05:12:18;;;;;;;50.70;25.68;;;;;;;-0.45;88.13;101507.84;1793655;80;25456;-56
2021/10/25 05:14:46;;;;;;;58.73;27.00;;;;;;;-0.43;88.02;101514.58;1793641;80;27351;-56
2021/10/25 05:17:12;;;;;;;55.65;26.25;;;;;;;-0.40;88.40;101510.70;1793540;80;25598;-55
2021/10/25 05:19:43;;;;;;;52.20;27.75;;;;;;;-0.38;88.36;101505.98;1793598;80;25696;-55
2021/10/25 05:22:10;;;;;;;52.88;26.12;;;;;;;-0.35;88.30;101508.77;1793602;80;26163;-56
2021/10/25 05:24:38;;;;;;;56.15;28.38;;;;;;;-0.33;88.48;101514.16;1793648;80;25686;-56
2021/10/25 05:27:07;;;;;;;45.95;25.02;;;;;;;-0.31;88.24;101505.47;1793589;80;27358;-55
2021/10/25 05:29:34;;;;;;;51.00;26.52;;;;;;;-0.29;88.16;101509.25;1793520;80;25619;-56
2021/10/25 05:32:04;;;;;;;48.75;25.77;;;;;;;-0.27;88.40;101513.88;1793622;79;25568;-56
2021/10/25 05:34:32;;;;;;;56.85;27.22;;;;;;;-0.27;88.48;101507.23;1793796;80;25607;-56
2021/10/25 05:36:59;;;;;;;54.03;27.52;;;;;;;-0.26;88.59;101508.32;1793600;80;25475;-55
2021/10/25 05:39:25;;;;;;;48.48;25.32;;;;;;;-0.21;88.55;101508.52;1793556;78;27326;-55
2021/10/25 05:41:52;;;;;;;47.58;25.55;;;;;;;-0.18;88.60;101509.15;1793497;80;25859;-56
2021/10/25 05:44:19;;;;;;;51.40;26.37;;;;;;;-0.16;88.69;101505.77;1793577;80;25627;-56
2021/10/25 05:46:46;;;;;;;50.60;25.30;;;;;;;-0.14;88.67;101503.19;1793591;80;25680;-55
2021/10/25 05:49:13;;;;;;;54.25;26.05;;;;;;;-0.12;88.50;101495.84;1793750;80;25676;-56
2021/10/25 05:51:40;;;;;;;52.80;25.45;;;;;;;-0.09;88.53;101498.06;1793608;80;27985;-55
2021/10/25 05:54:07;;;;;;;51.25;25.05;;;;;;;-0.06;88.63;101506.16;1793518;80;25496;-56
2021/10/25 05:56:34;;;;;;;53.05;26.62;;;;;;;-0.03;88.63;101498.57;1793646;80;25672;-55
2021/10/25 05:59:01;;;;;;;48.48;24.80;;;;;;;-0.01;88.40;101496.52;1793562;80;25988;-55
2021/10/25 06:01:55;;;;;;;44.00;23.80;;;;;;;0.03;88.43;101502.75;1796348;79;25480;-55
2021/10/25 06:04:10;;;;;;;41.95;22.60;;;;;;;0.05;88.43;101501.53;1793558;79;27330;-56
2021/10/25 06:06:37;;;;;;;45.98;25.05;;;;;;;0.07;88.62;101495.97;1796267;79;25584;-56
2021/10/25 06:09:06;;;;;;;44.75;24.02;;;;;;;0.08;89.19;101490.45;1796394;78;25678;-56
2021/10/25 06:11:35;;;;;;;54.47;24.87;;;;;;;0.10;88.71;101492.41;1796631;79;25633;-56
2021/10/25 06:14:05;;;;;;;45.52;24.77;;;;;;;0.13;88.81;101486.64;1796542;79;25470;-56
2021/10/25 06:16:41;;;;;;;51.30;25.13;;;;;;;0.19;88.68;101486.34;1796489;79;27328;-56
2021/10/25 06:19:15;;;;;;;51.53;25.12;;;;;;;0.22;88.80;101489.88;1796310;79;25635;-56
2021/10/25 06:21:42;;;;;;;44.50;25.50;;;;;;;0.25;88.79;101492.66;1796436;79;25490;-55
2021/10/25 06:24:09;;;;;;;49.65;25.90;;;;;;;0.29;88.81;101490.70;1796428;79;25494;-54
2021/10/25 06:26:36;;;;;;;48.02;25.00;;;;;;;0.34;89.08;101498.86;1796422;79;25463;-55
2021/10/25 06:29:03;;;;;;;53.52;28.00;;;;;;;0.39;89.17;101500.06;1796415;79;27288;-56
2021/10/25 06:31:31;;;;;;;50.85;26.40;;;;;;;0.51;89.57;101497.03;1796397;79;25670;-56
2021/10/25 06:34:02;;;;;;;52.40;27.70;;;;;;;0.71;90.18;101498.27;1796392;79;25612;-56
2021/10/25 06:36:26;;;;;;;46.37;26.07;;;;;;;0.96;90.56;101505.52;1795894;79;25663;-56
2021/10/25 06:38:58;;;;;;;49.98;27.82;;;;;;;1.14;90.24;101503.43;1796330;78;25644;-56
2021/10/25 06:41:25;;;;;;;49.23;28.98;;;;;;;1.37;90.50;101498.86;1796256;79;27372;-56
2021/10/25 06:43:52;;;;;;;47.35;26.20;;;;;;;1.61;90.20;101501.20;1796297;79;25443;-57
2021/10/25 06:46:19;;;;;;;51.75;26.62;;;;;;;1.81;89.85;101495.69;1796364;79;25442;-58
2021/10/25 06:48:46;;;;;;;45.35;25.68;;;;;;;2.05;89.58;101492.66;1796454;79;25456;-57
2021/10/25 06:51:13;;;;;;;47.58;26.50;;;;;;;2.26;89.38;101490.57;1796681;79;25639;-57
2021/10/25 06:53:40;;;;;;;46.15;25.52;;;;;;;2.47;89.09;101488.77;1796560;79;26813;-57
2021/10/25 06:56:08;;;;;;;52.98;26.17;;;;;;;2.62;88.03;101484.34;1796440;79;25882;-57
2021/10/25 06:58:35;;;;;;;50.98;24.67;;;;;;;2.83;88.24;101488.38;1796554;79;25590;-57
2021/10/25 07:01:02;;;;;;;46.15;25.00;;;;;;;3.10;87.90;101482.62;1796449;79;25438;-57
2021/10/25 07:03:29;;;;;;;55.03;28.27;;;;;;;3.46;89.49;101488.33;1796594;79;25446;-57
2021/10/25 07:06:00;;;;;;;47.20;25.80;;;;;;;3.90;91.19;101480.74;1796512;79;27324;-57
2021/10/25 07:08:27;;;;;;;38.95;24.67;;;;;;;4.30;89.52;101469.77;1796533;79;25842;-57
2021/10/25 07:10:53;;;;;;;44.63;22.98;;;;;;;4.57;88.58;101476.70;1796360;78;25503;-58
2021/10/25 07:13:21;;;;;;;47.15;24.10;;;;;;;4.85;87.51;101469.69;1796514;79;25427;-57
2021/10/25 07:15:58;;;;;;;39.83;21.95;;;;;;;5.19;86.85;101465.70;1796521;79;25521;-56
2021/10/25 07:18:28;;;;;;;48.05;23.85;;;;;;;5.52;86.30;101469.44;1793655;79;29545;-57
2021/10/25 07:23:36;;;;;;;39.60;22.27;;;;;;;6.29;85.88;101455.69;1796540;79;25647;-57
2021/10/25 08:06:53;;;;;;;20.43;13.43;;;;;;;9.48;73.12;101461.58;1793667;80;26221;-56
2021/10/25 08:11:47;;;;;;;18.60;11.75;;;;;;;9.84;69.00;101466.89;1793667;80;27408;-56
2021/10/25 08:14:13;;;;;;;21.65;12.63;;;;;;;9.82;70.31;101472.28;1793011;79;25628;-56
2021/10/25 08:16:47;;;;;;;;;;;;;;;9.99;69.60;101464.65;1796326;80;25502;-55
2021/10/25 08:19:24;;;;;;;17.73;11.33;;;;;;;10.39;70.38;101464.24;1793799;79;25445;-56
2021/10/25 08:22:09;;;;;;;22.65;11.57;;;;;;;10.68;70.29;101455.41;1793797;80;25431;-56
2021/10/25 08:24:40;;;;;;;21.52;11.25;;;;;;;11.28;68.89;101454.40;1793709;80;27957;-57
2021/10/25 08:27:09;;;;;;;18.40;12.13;;;;;;;11.35;66.83;101451.61;1793611;80;25422;-57
2021/10/25 08:29:39;;;;;;;;;;;;;;;11.61;68.91;101451.34;1796345;80;25486;-56
2021/10/25 08:39:59;;;;;;;19.20;10.55;;;;;;;12.37;64.37;101441.25;1793549;78;25665;-57
2021/10/25 08:42:30;;;;;;;18.30;11.57;;;;;;;12.68;63.33;101447.02;1793654;80;25513;-57
2021/10/25 08:45:07;;;;;;;18.57;11.48;;;;;;;12.92;62.66;101442.05;1793653;80;25882;-57
2021/10/25 08:51:29;;;;;;;;;;;;;;;13.52;62.98;101439.93;1796047;80;27400;-55
2021/10/25 08:53:56;;;;;;;17.95;10.60;;;;;;;13.88;59.19;101432.46;1776009;80;27283;-49
2021/10/25 08:56:23;;;;;;;18.55;11.08;;;;;;;13.79;59.01;101430.98;1793610;80;25731;-52
2021/10/25 08:58:52;;;;;;;17.35;10.75;;;;;;;13.61;58.94;101443.58;1793580;80;25519;-51
2021/10/25 09:01:34;;;;;;;15.75;11.25;;;;;;;13.22;57.64;101431.22;1792060;79;25929;-51
2021/10/25 09:04:11;;;;;;;16.85;10.03;;;;;;;12.86;56.97;101446.20;1790720;80;27329;-50
2021/10/25 09:06:55;;;;;;;18.85;10.20;;;;;;;12.68;57.97;101434.28;1790521;80;25501;-52
2021/10/25 09:09:23;;;;;;;20.80;10.80;;;;;;;12.59;59.00;101437.95;1790538;78;25442;-51
2021/10/25 09:12:08;;;;;;;17.85;10.68;;;;;;;12.60;59.02;101432.23;1790530;80;25668;-51
2021/10/25 09:14:35;;;;;;;14.65;9.53;;;;;;;12.63;58.62;101442.50;1790618;80;25521;-50
2021/10/25 09:17:07;;;;;;;20.97;10.18;;;;;;;12.61;59.02;101424.88;1790454;80;27500;-49
2021/10/25 09:19:37;;;;;;;18.82;10.05;;;;;;;13.04;61.03;101421.48;1790463;80;25660;-50
2021/10/25 09:22:15;;;;;;;16.45;10.82;;;;;;;13.67;60.11;101423.33;1790517;80;25475;-49
2021/10/25 09:24:55;;;;;;;16.57;9.93;;;;;;;13.97;57.74;101430.63;1790756;80;26080;-50
2021/10/25 09:27:37;;;;;;;18.73;10.48;;;;;;;14.32;58.53;101420.89;1790636;80;25430;-47
2021/10/25 09:30:24;;;;;;;19.65;10.43;;;;;;;15.27;58.07;101415.06;1790542;80;27326;-50
2021/10/25 09:32:50;;;;;;;18.45;9.63;;;;;;;15.75;54.82;101405.30;1790551;79;25581;-48
2021/10/25 09:35:25;;;;;;;16.97;9.95;;;;;;;15.94;52.25;101406.44;1790524;80;25652;-50
2021/10/25 09:37:57;;;;;;;19.00;10.23;;;;;;;16.02;52.15;101399.63;1790149;79;25596;-48
2021/10/25 09:40:50;;;;;;;13.45;8.73;;;;;;;16.10;51.50;101398.02;1789629;78;25908;-50
2021/10/25 09:43:20;;;;;;;16.95;9.53;;;;;;;16.39;51.27;101394.66;1788029;79;27317;-49
2021/10/25 09:45:55;;;;;;;13.53;9.08;;;;;;;16.75;50.87;101394.07;1789083;79;25676;-48
2021/10/25 09:51:04;;;;;;;13.48;8.75;;;;;;;16.85;51.27;101386.14;1790484;80;25430;-47
2021/10/25 09:53:43;;;;;;;15.32;8.58;;;;;;;16.86;50.23;101378.98;1790514;80;25418;-49
2021/10/25 09:56:11;;;;;;;13.13;8.70;;;;;;;17.20;49.79;101375.08;1790273;79;27385;-48
2021/10/25 09:58:56;;;;;;;14.90;8.38;;;;;;;17.18;48.16;101372.13;1790400;80;25644;-46
2021/10/25 10:01:22;;;;;;;13.90;8.58;;;;;;;17.29;48.18;101366.30;1791837;79;32370;-47
2021/10/25 10:03:46;;;;;;;18.80;8.97;;;;;;;17.33;49.33;101360.40;1796127;79;25520;-48
2021/10/25 10:06:12;;;;;;;13.45;8.45;;;;;;;17.31;47.50;101359.36;1796357;79;25593;-48
2021/10/25 10:08:40;;;;;;;11.75;7.92;;;;;;;16.99;47.86;101356.66;1796304;78;27382;-47
2021/10/25 10:11:09;;;;;;;13.95;8.30;;;;;;;16.96;47.78;101354.61;1796293;79;25435;-50
2021/10/25 10:13:37;;;;;;;12.35;8.48;;;;;;;17.03;48.46;101348.64;1796465;79;25671;-49
2021/10/25 10:16:06;;;;;;;10.88;8.28;;;;;;;17.37;48.22;101357.26;1796330;79;25432;-46
2021/10/25 10:18:34;;;;;;;14.03;8.60;;;;;;;17.61;43.40;101349.80;1796531;79;25458;-46
2021/10/25 10:21:03;;;;;;;14.05;8.83;;;;;;;17.20;46.68;101345.02;1796595;79;27307;-47
2021/10/25 10:23:32;;;;;;;11.55;8.00;;;;;;;17.35;47.36;101348.02;1796481;79;25486;-46
2021/10/25 10:26:05;;;;;;;11.20;7.80;;;;;;;17.39;45.59;101344.05;1796680;79;31903;-48
2021/10/25 10:28:44;;;;;;;12.50;8.13;;;;;;;17.53;43.88;101339.71;1780863;79;25953;-49
2021/10/25 10:31:24;;;;;;;10.90;7.67;;;;;;;17.32;45.66;101340.47;1796862;79;25623;-47
2021/10/25 10:33:54;;;;;;;13.62;8.08;;;;;;;17.33;45.24;101333.05;1796564;79;27312;-47
2021/10/25 10:36:34;;;;;;;10.10;6.92;;;;;;;17.61;45.74;101323.03;1796423;79;25644;-48
2021/10/25 10:39:16;;;;;;;;;;;;;;;18.26;45.87;101318.03;1799168;78;25542;-46
2021/10/25 10:41:48;;;;;;;10.68;7.47;;;;;;;18.40;41.98;101309.53;1796580;79;25564;-48
2021/10/25 10:44:18;;;;;;;12.40;7.75;;;;;;;18.13;40.65;101312.27;1794185;79;25666;-48
2021/10/25 10:47:08;;;;;;;10.78;6.92;;;;;;;18.06;42.00;101305.39;1796532;79;27289;-46
2021/10/25 10:49:39;;;;;;;13.50;6.90;;;;;;;18.14;41.68;101299.62;1796148;79;25540;-48
2021/10/25 10:55:32;;;;;;;11.48;6.70;;;;;;;19.03;42.23;101286.85;1796514;79;25678;-48
2021/10/25 10:57:40;;;;;;;12.15;8.35;;;;;;;19.23;42.31;101284.32;1777450;79;25512;-46
2021/10/25 10:59:50;;;;;;;12.20;7.03;;;;;;;18.95;40.82;101283.64;1793161;79;27195;-49
2021/10/25 11:02:19;;;;;;;11.35;7.20;;;;;;;18.95;41.72;101270.48;1779445;79;25520;-46
2021/10/25 11:04:46;;;;;;;11.60;6.90;;;;;;;18.85;40.55;101284.89;1796376;79;31440;-47
2021/10/25 11:07:13;;;;;;;10.05;6.60;;;;;;;18.53;40.11;101274.19;1796176;79;25433;-49
2021/10/25 11:09:40;;;;;;;11.60;6.70;;;;;;;18.53;40.99;101278.88;1796211;78;25620;-46
2021/10/25 11:12:12;;;;;;;9.28;6.17;;;;;;;18.17;39.06;101276.26;1796214;79;27316;-48
2021/10/25 11:14:39;;;;;;;10.00;6.97;;;;;;;17.79;39.28;101276.60;1795984;79;25455;-47
2021/10/25 11:17:25;;;;;;;10.70;6.05;;;;;;;17.54;39.38;101272.37;1796280;79;25666;-46
2021/10/25 11:19:52;;;;;;;9.35;6.28;;;;;;;17.50;40.47;101261.88;1795971;79;25682;-51
2021/10/25 11:22:35;;;;;;;11.73;6.47;;;;;;;17.90;42.48;101260.63;1796356;79;25451;-50
2021/10/25 11:25:10;;;;;;;7.72;5.50;;;;;;;18.34;40.68;101252.80;1796249;79;27929;-52
2021/10/25 11:27:39;;;;;;;9.70;5.78;;;;;;;18.05;40.34;101242.80;1796136;79;25497;-47
2021/10/25 11:30:19;;;;;;;11.70;5.92;;;;;;;17.81;40.02;101242.06;1796279;79;25509;-49
2021/10/25 11:32:47;;;;;;;11.22;5.80;;;;;;;17.69;40.00;101240.89;1796152;79;26440;-49
2021/10/25 11:35:15;;;;;;;8.50;5.25;;;;;;;17.57;39.80;101231.25;1796287;79;25604;-47
2021/10/25 11:37:50;;;;;;;8.03;5.50;;;;;;;17.35;39.28;101233.17;1796131;79;27351;-48
2021/10/25 11:40:19;;;;;;;8.88;5.53;;;;;;;17.15;38.88;101225.74;1795121;78;25443;-46
2021/10/25 11:42:46;;;;;;;10.23;5.35;;;;;;;17.22;39.57;101213.70;1795708;79;25671;-49
2021/10/25 11:45:19;;;;;;;9.25;5.20;;;;;;;17.41;38.58;101222.03;1795814;79;25720;-47
2021/10/25 11:47:49;;;;;;;10.32;5.15;;;;;;;17.04;38.19;101211.64;1796216;79;25629;-47
2021/10/25 11:50:27;;;;;;;8.85;5.28;;;;;;;16.64;38.40;101215.28;1796162;79;28066;-47
2021/10/25 11:53:12;;;;;;;8.70;5.20;;;;;;;16.48;39.01;101215.00;1796100;79;25691;-46
2021/10/25 11:55:42;;;;;;;10.45;5.60;;;;;;;16.26;39.12;101208.66;1796238;79;25692;-46
2021/10/25 11:58:17;;;;;;;7.35;5.05;;;;;;;16.20;40.08;101201.75;1796239;79;25621;-43
2021/10/25 12:00:49;;;;;;;9.25;5.47;;;;;;;16.28;40.19;101198.20;1796269;79;25599;-45
2021/10/25 12:03:21;;;;;;;8.48;5.10;;;;;;;16.39;39.28;101205.47;1791175;79;27375;-44
2021/10/25 12:05:48;;;;;;;9.33;5.40;;;;;;;16.34;39.82;101191.42;1790507;79;25722;-45
2021/10/25 12:08:16;;;;;;;9.15;5.03;;;;;;;16.62;41.16;101186.92;1790519;80;25441;-45
2021/10/25 12:10:47;;;;;;;8.88;5.70;;;;;;;17.06;41.39;101183.44;1790601;78;27738;-45
2021/10/25 12:13:15;;;;;;;11.45;5.78;;;;;;;17.28;40.75;101184.23;1790539;80;25595;-45
2021/10/25 12:15:54;;;;;;;7.95;5.25;;;;;;;17.18;40.03;101172.57;1790573;80;28100;-45
2021/10/25 12:18:25;;;;;;;10.13;5.67;;;;;;;17.07;39.08;101171.34;1790741;80;25635;-45
2021/10/25 12:20:53;;;;;;;11.18;6.00;;;;;;;16.87;39.69;101172.91;1789873;80;25757;-43
2021/10/25 12:23:23;;;;;;;9.75;5.80;;;;;;;16.78;39.37;101177.03;1790460;80;26203;-46
2021/10/25 12:26:04;;;;;;;10.13;6.40;;;;;;;16.61;39.19;101166.19;1790546;80;25448;-44
2021/10/25 12:28:35;;;;;;;11.22;6.00;;;;;;;16.47;38.58;101175.98;1790563;80;28107;-47
2021/10/25 12:31:09;;;;;;;13.10;5.78;;;;;;;16.43;39.99;101184.02;1790486;80;25651;-44
2021/10/25 12:33:38;;;;;;;11.10;5.50;;;;;;;16.34;39.20;101174.25;1790078;79;25503;-45
2021/10/25 12:36:20;;;;;;;11.10;4.90;;;;;;;16.01;39.74;101163.34;1790640;80;25785;-45
2021/10/25 12:38:54;;;;;;;9.55;4.85;;;;;;;15.79;40.60;101157.53;1790524;78;25675;-45
2021/10/25 12:41:21;;;;;;;8.60;5.35;;;;;;;15.98;40.57;101158.53;1790562;80;27330;-46
2021/10/25 12:43:54;;;;;;;8.03;5.35;;;;;;;15.93;40.43;101160.07;1790465;80;25695;-44
2021/10/25 12:46:22;;;;;;;8.03;4.95;;;;;;;15.92;40.88;101163.94;1771248;80;25505;-47
2021/10/25 12:48:55;;;;;;;8.80;4.87;;;;;;;16.07;40.93;101161.23;1790448;79;25667;-45
2021/10/25 12:51:25;;;;;;;7.95;5.33;;;;;;;16.27;41.03;101166.56;1790601;80;25708;-46
2021/10/25 12:53:52;;;;;;;7.87;5.30;;;;;;;16.22;39.62;101164.02;1788283;79;27327;-46
2021/10/25 12:56:29;;;;;;;8.18;5.15;;;;;;;16.06;40.57;101162.38;1790630;80;25805;-48
2021/10/25 12:59:02;;;;;;;7.47;5.05;;;;;;;15.98;40.41;101161.27;1790503;80;25604;-45
2021/10/25 13:01:29;;;;;;;7.72;5.17;;;;;;;15.82;40.56;101156.89;1790319;79;25774;-45
2021/10/25 13:04:02;;;;;;;8.28;4.95;;;;;;;15.71;40.09;101163.76;1790649;80;25671;-47